createdAt,value
2023-05-02T00:01:25.551Z,2.29
2023-05-02T00:03:22.051Z,2.29
2023-05-02T00:05:21.539Z,2.29
2023-05-02T00:07:20.971Z,2.29
2023-05-02T00:09:20.033Z,2.29
2023-05-02T00:11:21.306Z,2.32
2023-05-02T00:13:20.119Z,2.32
2023-05-02T00:15:20.776Z,2.32
2023-05-02T00:17:20.789Z,2.3
2023-05-02T00:19:20.816Z,2.3
2023-05-02T00:21:20.998Z,2.3
2023-05-02T00:23:20.617Z,2.29
2023-05-02T00:25:20.505Z,2.29
2023-05-02T00:27:20.865Z,2.29
2023-05-02T00:29:20.308Z,2.33
2023-05-02T00:31:21.526Z,2.33
2023-05-02T00:33:20.866Z,2.33
2023-05-02T00:35:19.967Z,2.36
2023-05-02T00:37:20.622Z,2.36
2023-05-02T00:39:20.055Z,2.36
2023-05-02T00:41:21.126Z,2.32
2023-05-02T00:43:20.216Z,2.32
2023-05-02T00:45:20.924Z,2.32
2023-05-02T00:47:20.561Z,2.32
2023-05-02T00:49:20.708Z,2.32
2023-05-02T00:51:21.091Z,2.32
2023-05-02T00:53:20.723Z,2.35
2023-05-02T00:55:20.073Z,2.35
2023-05-02T00:57:20.299Z,2.35
2023-05-02T00:59:19.981Z,2.35
2023-05-02T01:01:24.736Z,2.35
2023-05-02T01:03:21.213Z,2.35
2023-05-02T01:05:21.459Z,2.31
2023-05-02T01:07:20.928Z,2.31
2023-05-02T01:09:20.776Z,2.31
2023-05-02T01:11:20.950Z,2.37
2023-05-02T01:13:20.014Z,2.37
2023-05-02T01:15:20.641Z,2.37
2023-05-02T01:17:20.660Z,2.32
2023-05-02T01:19:20.826Z,2.32
2023-05-02T01:21:20.861Z,2.32
2023-05-02T01:23:21.081Z,2.36
2023-05-02T01:25:20.379Z,2.36
2023-05-02T01:27:20.687Z,2.36
2023-05-02T01:29:20.129Z,2.33
2023-05-02T01:31:21.319Z,2.33
2023-05-02T01:33:20.830Z,2.33
2023-05-02T01:35:20.887Z,2.33
2023-05-02T01:37:20.665Z,2.33
2023-05-02T01:39:20.088Z,2.33
2023-05-02T01:41:21.172Z,2.32
2023-05-02T01:43:20.413Z,2.32
2023-05-02T01:45:20.869Z,2.32
2023-05-02T01:47:21.349Z,2.32
2023-05-02T01:49:20.245Z,2.32
2023-05-02T01:51:21.341Z,2.32
2023-05-02T01:53:20.192Z,2.32
2023-05-02T01:55:20.710Z,2.32
2023-05-02T01:57:20.170Z,2.32
2023-05-02T01:59:20.801Z,2.33
2023-05-02T02:01:24.493Z,2.33
2023-05-02T02:03:20.653Z,2.33
2023-05-02T02:05:20.954Z,2.36
2023-05-02T02:07:20.405Z,2.36
2023-05-02T02:09:20.793Z,2.36
2023-05-02T02:11:20.766Z,2.35
2023-05-02T02:13:20.617Z,2.35
2023-05-02T02:15:20.269Z,2.35
2023-05-02T02:17:21.367Z,2.35
2023-05-02T02:19:20.420Z,2.35
2023-05-02T02:21:21.000Z,2.35
2023-05-02T02:23:20.080Z,2.35
2023-05-02T02:25:20.534Z,2.35
2023-05-02T02:27:20.087Z,2.35
2023-05-02T02:29:20.724Z,2.36
2023-05-02T02:31:20.934Z,2.36
2023-05-02T02:33:21.026Z,2.36
2023-05-02T02:35:20.073Z,2.36
2023-05-02T02:37:20.693Z,2.36
2023-05-02T02:39:20.162Z,2.36
2023-05-02T02:41:21.280Z,2.36
2023-05-02T02:43:20.315Z,2.36
2023-05-02T02:45:21.315Z,2.36
2023-05-02T02:47:20.704Z,2.36
2023-05-02T02:49:21.401Z,2.36
2023-05-02T02:51:20.874Z,2.36
2023-05-02T02:53:20.857Z,2.37
2023-05-02T02:55:34.659Z,2.37
2023-05-02T02:57:20.293Z,2.37
2023-05-02T02:59:20.823Z,2.37
2023-05-02T03:01:23.673Z,2.37
2023-05-02T03:03:21.016Z,2.37
2023-05-02T03:05:21.301Z,2.37
2023-05-02T03:07:20.774Z,2.37
2023-05-02T03:09:20.286Z,2.37
2023-05-02T03:11:21.371Z,2.38
2023-05-02T03:13:20.260Z,2.38
2023-05-02T03:15:19.977Z,2.38
2023-05-02T03:17:21.105Z,2.38
2023-05-02T03:19:20.552Z,2.38
2023-05-02T03:21:21.419Z,2.38
2023-05-02T03:23:19.992Z,2.38
2023-05-02T03:25:20.610Z,2.38
2023-05-02T03:27:20.260Z,2.38
2023-05-02T03:29:20.588Z,2.39
2023-05-02T03:31:20.723Z,2.39
2023-05-02T03:33:21.732Z,2.39
2023-05-02T03:35:20.544Z,2.41
2023-05-02T03:37:20.997Z,2.41
2023-05-02T03:39:20.453Z,2.41
2023-05-02T03:41:21.809Z,2.39
2023-05-02T03:43:19.956Z,2.39
2023-05-02T03:45:20.627Z,2.39
2023-05-02T03:47:21.498Z,2.39
2023-05-02T03:49:20.635Z,2.39
2023-05-02T03:51:20.515Z,2.39
2023-05-02T03:53:20.505Z,2.39
2023-05-02T03:55:20.058Z,2.39
2023-05-02T03:57:20.559Z,2.39
2023-05-02T03:59:19.911Z,2.41
2023-05-02T04:01:24.203Z,2.41
2023-05-02T04:03:21.630Z,2.41
2023-05-02T04:05:21.180Z,2.41
2023-05-02T04:07:21.257Z,2.41
2023-05-02T04:09:20.327Z,2.41
2023-05-02T04:11:20.569Z,2.41
2023-05-02T04:13:20.666Z,2.41
2023-05-02T04:15:20.233Z,2.41
2023-05-02T04:17:21.062Z,2.42
2023-05-02T04:19:20.348Z,2.42
2023-05-02T04:21:24.169Z,2.42
2023-05-02T04:23:20.213Z,2.42
2023-05-02T04:25:20.817Z,2.42
2023-05-02T04:27:20.087Z,2.42
2023-05-02T04:29:20.673Z,2.42
2023-05-02T04:31:21.183Z,2.42
2023-05-02T04:33:21.139Z,2.42
2023-05-02T04:35:20.857Z,2.43
2023-05-02T04:37:21.189Z,2.43
2023-05-02T04:39:20.776Z,2.43
2023-05-02T04:41:21.227Z,2.43
2023-05-02T04:43:22.465Z,2.43
2023-05-02T04:45:20.284Z,2.43
2023-05-02T04:47:20.527Z,2.43
2023-05-02T04:49:20.808Z,2.43
2023-05-02T04:51:20.651Z,2.43
2023-05-02T04:53:20.389Z,2.43
2023-05-02T04:55:20.047Z,2.43
2023-05-02T04:57:22.616Z,2.43
2023-05-02T04:59:20.222Z,2.42
2023-05-02T05:01:24.145Z,2.42
2023-05-02T05:03:24.554Z,2.42
2023-05-02T05:05:20.585Z,2.43
2023-05-02T05:07:21.308Z,2.43
2023-05-02T05:09:20.326Z,2.43
2023-05-02T05:11:21.247Z,2.42
2023-05-02T05:13:20.322Z,2.42
2023-05-02T05:15:20.787Z,2.42
2023-05-02T05:17:21.235Z,2.42
2023-05-02T05:19:21.128Z,2.42
2023-05-02T05:21:20.572Z,2.42
2023-05-02T05:23:20.481Z,2.42
2023-05-02T05:25:20.921Z,2.42
2023-05-02T05:27:20.323Z,2.42
2023-05-02T05:29:20.710Z,2.43
2023-05-02T05:31:20.806Z,2.43
2023-05-02T05:33:21.467Z,2.43
2023-05-02T05:35:20.340Z,2.43
2023-05-02T05:37:20.672Z,2.43
2023-05-02T05:39:20.160Z,2.43
2023-05-02T05:41:21.094Z,2.43
2023-05-02T05:43:19.967Z,2.43
2023-05-02T05:45:20.514Z,2.43
2023-05-02T05:47:20.586Z,2.42
2023-05-02T05:49:20.826Z,2.42
2023-05-02T05:51:20.762Z,2.42
2023-05-02T05:53:20.702Z,2.42
2023-05-02T05:55:20.267Z,2.42
2023-05-02T05:57:20.594Z,2.42
2023-05-02T05:59:20.068Z,2.43
2023-05-02T06:01:23.424Z,2.43
2023-05-02T06:03:21.828Z,2.43
2023-05-02T06:05:20.756Z,2.43
2023-05-02T06:07:21.245Z,2.43
2023-05-02T06:09:20.060Z,2.43
2023-05-02T06:11:21.277Z,2.42
2023-05-02T06:13:22.872Z,2.42
2023-05-02T06:15:20.621Z,2.42
2023-05-02T06:17:21.278Z,2.41
2023-05-02T06:19:20.435Z,2.41
2023-05-02T06:21:21.233Z,2.41
2023-05-02T06:23:20.325Z,2.42
2023-05-02T06:25:20.952Z,2.42
2023-05-02T06:27:20.284Z,2.42
2023-05-02T06:29:20.812Z,2.38
2023-05-02T06:31:21.258Z,2.38
2023-05-02T06:33:21.455Z,2.38
2023-05-02T06:35:20.286Z,2.37
2023-05-02T06:37:21.203Z,2.37
2023-05-02T06:39:20.207Z,2.37
2023-05-02T06:41:21.502Z,2.38
2023-05-02T06:43:20.387Z,2.38
2023-05-02T06:45:20.823Z,2.38
2023-05-02T06:47:20.945Z,2.37
2023-05-02T06:49:21.176Z,2.37
2023-05-02T06:51:21.061Z,2.37
2023-05-02T06:53:20.116Z,2.36
2023-05-02T06:55:20.696Z,2.36
2023-05-02T06:57:20.105Z,2.36
2023-05-02T06:59:20.770Z,2.35
2023-05-02T07:01:27.782Z,2.35
2023-05-02T07:03:23.689Z,2.35
2023-05-02T07:05:21.211Z,2.37
2023-05-02T07:07:20.792Z,2.37
2023-05-02T07:09:20.837Z,2.37
2023-05-02T07:11:20.873Z,2.37
2023-05-02T07:13:23.327Z,2.37
2023-05-02T07:15:19.991Z,2.37
2023-05-02T07:17:21.398Z,2.37
2023-05-02T07:19:21.252Z,2.37
2023-05-02T07:21:21.273Z,2.37
2023-05-02T07:23:20.768Z,2.38
2023-05-02T07:25:20.258Z,2.38
2023-05-02T07:27:23.656Z,2.38
2023-05-02T07:29:20.527Z,2.38
2023-05-02T07:31:21.595Z,2.38
2023-05-02T07:33:21.267Z,2.38
2023-05-02T07:35:19.900Z,2.39
2023-05-02T07:37:20.440Z,2.39
2023-05-02T07:39:20.888Z,2.39
2023-05-02T07:41:20.975Z,2.42
2023-05-02T07:43:22.569Z,2.42
2023-05-02T07:45:20.131Z,2.42
2023-05-02T07:47:20.882Z,2.42
2023-05-02T07:49:23.236Z,2.42
2023-05-02T07:51:21.182Z,2.42
2023-05-02T07:53:19.959Z,2.46
2023-05-02T07:55:20.455Z,2.46
2023-05-02T07:57:20.252Z,2.46
2023-05-02T07:59:20.709Z,2.44
2023-05-02T08:01:23.972Z,2.44
2023-05-02T08:03:22.208Z,2.44
2023-05-02T08:05:21.868Z,2.46
2023-05-02T08:07:21.612Z,2.46
2023-05-02T08:09:20.761Z,2.46
2023-05-02T08:11:21.915Z,2.46
2023-05-02T08:13:20.670Z,2.46
2023-05-02T08:15:20.117Z,2.46
2023-05-02T08:17:21.624Z,2.44
2023-05-02T08:19:20.520Z,2.44
2023-05-02T08:21:21.518Z,2.44
2023-05-02T08:23:22.822Z,2.43
2023-05-02T08:25:20.677Z,2.43
2023-05-02T08:27:20.267Z,2.43
2023-05-02T08:29:20.598Z,2.43
2023-05-02T08:31:20.418Z,2.43
2023-05-02T08:33:21.531Z,2.43
2023-05-02T08:35:20.331Z,2.42
2023-05-02T08:37:21.271Z,2.42
2023-05-02T08:39:20.301Z,2.42
2023-05-02T08:41:36.923Z,2.42
2023-05-02T08:43:20.449Z,2.42
2023-05-02T08:45:20.963Z,2.42
2023-05-02T08:47:21.275Z,2.36
2023-05-02T08:49:21.109Z,2.36
2023-05-02T08:51:21.151Z,2.36
2023-05-02T08:53:20.964Z,2.36
2023-05-02T08:55:20.385Z,2.36
2023-05-02T08:57:20.516Z,2.36
2023-05-02T08:59:22.861Z,2.37
2023-05-02T09:01:24.446Z,2.37
2023-05-02T09:03:23.238Z,2.37
2023-05-02T09:05:21.680Z,2.37
2023-05-02T09:07:22.266Z,2.37
2023-05-02T09:09:20.755Z,2.37
2023-05-02T09:11:20.379Z,2.37
2023-05-02T09:13:21.115Z,2.37
2023-05-02T09:15:21.127Z,2.37
2023-05-02T09:17:21.113Z,2.44
2023-05-02T09:19:20.463Z,2.44
2023-05-02T09:21:21.523Z,2.44
2023-05-02T09:23:20.365Z,2.38
2023-05-02T09:25:21.171Z,2.38
2023-05-02T09:27:20.311Z,2.38
2023-05-02T09:29:20.876Z,2.33
2023-05-02T09:31:37.391Z,2.33
2023-05-02T09:33:20.929Z,2.33
2023-05-02T09:35:20.599Z,2.3
2023-05-02T09:37:20.807Z,2.3
2023-05-02T09:39:22.422Z,2.3
2023-05-02T09:41:21.262Z,2.28
2023-05-02T09:43:20.183Z,2.28
2023-05-02T09:45:20.826Z,2.28
2023-05-02T09:47:20.619Z,2.31
2023-05-02T09:49:21.043Z,2.31
2023-05-02T09:51:20.353Z,2.31
2023-05-02T09:53:21.034Z,2.32
2023-05-02T09:55:21.174Z,2.32
2023-05-02T09:57:22.840Z,2.32
2023-05-02T09:59:20.456Z,2.31
2023-05-02T10:01:26.100Z,2.31
2023-05-02T10:03:21.252Z,2.31
2023-05-02T10:05:21.478Z,2.31
2023-05-02T10:07:21.206Z,2.31
2023-05-02T10:09:21.672Z,2.31
2023-05-02T10:11:20.747Z,2.32
2023-05-02T10:13:20.139Z,2.32
2023-05-02T10:15:23.867Z,2.32
2023-05-02T10:17:20.863Z,2.35
2023-05-02T10:19:21.110Z,2.35
2023-05-02T10:21:21.715Z,2.35
2023-05-02T10:23:20.870Z,2.36
2023-05-02T10:25:20.931Z,2.36
2023-05-02T10:27:20.403Z,2.36
2023-05-02T10:29:20.701Z,2.33
2023-05-02T10:31:20.441Z,2.33
2023-05-02T10:33:21.070Z,2.33
2023-05-02T10:35:20.396Z,2.32
2023-05-02T10:37:20.665Z,2.32
2023-05-02T10:39:21.173Z,2.32
2023-05-02T10:41:20.555Z,2.31
2023-05-02T10:43:20.033Z,2.31
2023-05-02T10:45:21.675Z,2.31
2023-05-02T10:47:21.806Z,2.31
2023-05-02T10:49:20.555Z,2.31
2023-05-02T10:51:22.825Z,2.31
2023-05-02T10:53:20.576Z,2.3
2023-05-02T10:55:21.398Z,2.3
2023-05-02T10:57:20.615Z,2.3
2023-05-02T10:59:20.999Z,2.3
2023-05-02T11:01:20.761Z,2.3
2023-05-02T11:03:21.549Z,2.3
2023-05-02T11:05:21.136Z,2.3
2023-05-02T11:07:20.768Z,2.3
2023-05-02T11:09:20.623Z,2.3
2023-05-02T11:11:20.245Z,2.32
2023-05-02T11:13:20.719Z,2.32
2023-05-02T11:15:23.285Z,2.32
2023-05-02T11:17:21.411Z,2.32
2023-05-02T11:19:20.932Z,2.32
2023-05-02T11:21:21.070Z,2.32
2023-05-02T11:23:20.361Z,2.3
2023-05-02T11:25:21.372Z,2.3
2023-05-02T11:27:20.320Z,2.3
2023-05-02T11:29:20.899Z,2.29
2023-05-02T11:31:20.656Z,2.29
2023-05-02T11:33:21.946Z,2.29
2023-05-02T11:35:21.027Z,2.29
2023-05-02T11:37:20.264Z,2.29
2023-05-02T11:39:20.813Z,2.29
2023-05-02T11:41:20.515Z,2.29
2023-05-02T11:43:20.919Z,2.29
2023-05-02T11:45:20.033Z,2.29
2023-05-02T11:47:21.390Z,2.28
2023-05-02T11:49:23.308Z,2.28
2023-05-02T11:51:24.076Z,2.28
2023-05-02T11:53:20.718Z,2.28
2023-05-02T11:55:22.334Z,2.28
2023-05-02T11:57:20.642Z,2.28
2023-05-02T11:59:20.108Z,2.17
2023-05-02T12:01:23.216Z,2.17
2023-05-02T12:03:21.546Z,2.17
2023-05-02T12:05:20.363Z,1.71
2023-05-02T12:07:23.636Z,1.71
2023-05-02T12:09:20.474Z,1.71
2023-05-02T12:11:20.795Z,1.72
2023-05-02T12:13:22.644Z,1.72
2023-05-02T12:15:20.867Z,1.72
2023-05-02T12:17:20.545Z,2.05
2023-05-02T12:19:21.042Z,2.05
2023-05-02T12:21:20.299Z,2.05
2023-05-02T12:23:20.686Z,2.2
2023-05-02T12:25:20.143Z,2.2
2023-05-02T12:27:20.652Z,2.2
2023-05-02T12:29:20.127Z,2.24
2023-05-02T12:31:21.545Z,2.24
2023-05-02T12:33:24.051Z,2.24
2023-05-02T12:35:20.570Z,2.26
2023-05-02T12:37:21.038Z,2.26
2023-05-02T12:39:20.303Z,2.26
2023-05-02T12:41:21.116Z,2.28
2023-05-02T12:43:20.162Z,2.28
2023-05-02T12:45:20.623Z,2.28
2023-05-02T12:47:20.991Z,2.28
2023-05-02T12:49:21.497Z,2.28
2023-05-02T12:51:20.579Z,2.28
2023-05-02T12:53:20.500Z,2.29
2023-05-02T12:55:20.440Z,2.29
2023-05-02T12:57:20.596Z,2.29
2023-05-02T12:59:20.242Z,2.3
2023-05-02T13:01:25.222Z,2.3
2023-05-02T13:03:21.561Z,2.3
2023-05-02T13:05:20.861Z,2.3
2023-05-02T13:07:21.492Z,2.3
2023-05-02T13:09:20.576Z,2.3
2023-05-02T13:11:20.718Z,2.3
2023-05-02T13:13:20.977Z,2.3
2023-05-02T13:15:20.625Z,2.3
2023-05-02T13:17:22.471Z,2.3
2023-05-02T13:19:22.024Z,2.3
2023-05-02T13:21:21.385Z,2.3
2023-05-02T13:23:20.471Z,2.3
2023-05-02T13:25:20.782Z,2.3
2023-05-02T13:27:20.646Z,2.3
2023-05-02T13:29:19.980Z,2.3
2023-05-02T13:31:24.587Z,2.3
2023-05-02T13:33:20.521Z,2.3
2023-05-02T13:35:20.694Z,2.29
2023-05-02T13:37:20.223Z,2.29
2023-05-02T13:39:21.145Z,2.29
2023-05-02T13:41:20.564Z,2.3
2023-05-02T13:43:23.269Z,2.3
2023-05-02T13:45:20.275Z,2.3
2023-05-02T13:47:21.408Z,2.3
2023-05-02T13:49:20.446Z,2.3
2023-05-02T13:51:21.527Z,2.3
2023-05-02T13:53:23.048Z,2.29
2023-05-02T13:55:20.031Z,2.29
2023-05-02T13:57:20.477Z,2.29
2023-05-02T13:59:22.340Z,2.3
2023-05-02T14:01:24.604Z,2.3
2023-05-02T14:03:21.946Z,2.3
2023-05-02T14:05:20.807Z,2.29
2023-05-02T14:07:21.308Z,2.29
2023-05-02T14:09:20.274Z,2.29
2023-05-02T14:11:21.480Z,2.31
2023-05-02T14:13:20.515Z,2.31
2023-05-02T14:15:20.966Z,2.31
2023-05-02T14:17:24.047Z,2.31
2023-05-02T14:19:20.870Z,2.31
2023-05-02T14:21:20.974Z,2.31
2023-05-02T14:23:20.162Z,2.31
2023-05-02T14:25:20.774Z,2.31
2023-05-02T14:27:20.272Z,2.31
2023-05-02T14:29:23.202Z,2.31
2023-05-02T14:31:20.797Z,2.31
2023-05-02T14:33:21.288Z,2.31
2023-05-02T14:35:20.248Z,2.3
2023-05-02T14:37:20.684Z,2.3
2023-05-02T14:39:20.380Z,2.3
2023-05-02T14:41:21.416Z,2.3
2023-05-02T14:43:20.234Z,2.3
2023-05-02T14:45:22.467Z,2.3
2023-05-02T14:47:20.764Z,2.31
2023-05-02T14:49:20.771Z,2.31
2023-05-02T14:51:21.325Z,2.31
2023-05-02T14:53:20.342Z,2.31
2023-05-02T14:55:20.707Z,2.31
2023-05-02T14:57:20.448Z,2.29
2023-05-02T14:59:20.993Z,2.29
2023-05-02T15:01:25.581Z,2.32
2023-05-02T15:03:21.727Z,2.32
2023-05-02T15:05:24.980Z,2.32
2023-05-02T15:07:22.599Z,2.32
2023-05-02T15:09:22.336Z,2.32
2023-05-02T15:11:21.345Z,2.32
2023-05-02T15:13:20.378Z,2.32
2023-05-02T15:15:20.896Z,2.32
2023-05-02T15:17:21.060Z,2.32
2023-05-02T15:19:20.944Z,2.31
2023-05-02T15:21:20.708Z,2.31
2023-05-02T15:23:20.780Z,2.31
2023-05-02T15:25:20.265Z,2.3
2023-05-02T15:27:20.840Z,2.3
2023-05-02T15:29:20.174Z,2.3
2023-05-02T15:31:24.092Z,2.31
2023-05-02T15:33:20.699Z,2.31
2023-05-02T15:35:20.828Z,2.31
2023-05-02T15:37:20.583Z,2.31
2023-05-02T15:39:20.649Z,2.31
2023-05-02T15:41:20.603Z,2.31
2023-05-02T15:43:21.969Z,2.3
2023-05-02T15:45:20.805Z,2.3
2023-05-02T15:47:21.694Z,2.3
2023-05-02T15:49:20.883Z,2.31
2023-05-02T15:51:20.590Z,2.31
2023-05-02T15:53:20.701Z,2.31
2023-05-02T15:55:20.225Z,2.31
2023-05-02T15:57:20.666Z,2.31
2023-05-02T15:59:20.099Z,2.31
2023-05-02T16:01:24.915Z,2.31
2023-05-02T16:03:20.954Z,2.31
2023-05-02T16:05:20.717Z,2.31
2023-05-02T16:07:21.337Z,2.31
2023-05-02T16:09:20.179Z,2.31
2023-05-02T16:11:21.543Z,2.31
2023-05-02T16:13:20.128Z,2.31
2023-05-02T16:15:20.642Z,2.31
2023-05-02T16:17:21.122Z,2.31
2023-05-02T16:19:21.580Z,2.31
2023-05-02T16:21:21.309Z,2.3
2023-05-02T16:23:20.755Z,2.3
2023-05-02T16:25:20.826Z,2.3
2023-05-02T16:27:20.362Z,2.3
2023-05-02T16:29:20.441Z,2.3
2023-05-02T16:31:20.564Z,2.31
2023-05-02T16:33:21.097Z,2.3
2023-05-02T16:35:21.025Z,2.3
2023-05-02T16:37:20.269Z,2.3
2023-05-02T16:39:20.688Z,2.3
2023-05-02T16:41:24.519Z,2.3
2023-05-02T16:43:21.100Z,2.3
2023-05-02T16:45:20.301Z,2.3
2023-05-02T16:47:21.439Z,2.3
2023-05-02T16:49:20.392Z,2.3
2023-05-02T16:51:21.174Z,2.3
2023-05-02T16:53:20.470Z,2.3
2023-05-02T16:55:20.699Z,2.31
2023-05-02T16:57:20.391Z,2.31
2023-05-02T16:59:20.715Z,2.31
2023-05-02T17:01:21.018Z,2.31
2023-05-02T17:03:21.874Z,2.31
2023-05-02T17:05:20.949Z,2.31
2023-05-02T17:07:20.976Z,2.32
2023-05-02T17:09:20.849Z,2.32
2023-05-02T17:11:21.224Z,2.32
2023-05-02T17:13:21.038Z,2.33
2023-05-02T17:15:20.183Z,2.33
2023-05-02T17:17:21.435Z,2.33
2023-05-02T17:19:20.751Z,2.33
2023-05-02T17:21:21.353Z,2.33
2023-05-02T17:23:20.377Z,2.33
2023-05-02T17:25:19.916Z,2.35
2023-05-02T17:27:20.716Z,2.35
2023-05-02T17:29:20.036Z,2.35
2023-05-02T17:31:21.427Z,2.35
2023-05-02T17:33:20.812Z,2.35
2023-05-02T17:35:21.523Z,2.35
2023-05-02T17:37:20.218Z,2.36
2023-05-02T17:39:20.847Z,2.36
2023-05-02T17:41:23.141Z,2.36
2023-05-02T17:43:20.919Z,2.37
2023-05-02T17:45:20.200Z,2.37
2023-05-02T17:47:21.267Z,2.37
2023-05-02T17:49:22.926Z,2.38
2023-05-02T17:51:21.406Z,2.37
2023-05-02T17:53:20.153Z,2.37
2023-05-02T17:55:20.697Z,2.37
2023-05-02T17:57:20.295Z,2.38
2023-05-02T17:59:20.687Z,2.38
2023-05-02T18:01:20.612Z,2.42
2023-05-02T18:03:21.632Z,2.42
2023-05-02T18:05:21.414Z,2.42
2023-05-02T18:07:20.736Z,2.44
2023-05-02T18:09:20.890Z,2.44
2023-05-02T18:11:20.757Z,2.44
2023-05-02T18:13:20.915Z,2.46
2023-05-02T18:15:20.337Z,2.47
2023-05-02T18:17:21.613Z,2.47
2023-05-02T18:19:20.739Z,2.48
2023-05-02T18:21:21.186Z,2.48
2023-05-02T18:23:20.385Z,2.48
2023-05-02T18:25:21.693Z,2.51
2023-05-02T18:27:20.612Z,2.5
2023-05-02T18:29:20.101Z,2.5
2023-05-02T18:31:20.905Z,2.52
2023-05-02T18:33:20.613Z,2.52
2023-05-02T18:35:24.728Z,2.52
2023-05-02T18:37:20.449Z,2.55
2023-05-02T18:39:20.727Z,2.55
2023-05-02T18:41:20.311Z,2.55
2023-05-02T18:43:20.862Z,2.56
2023-05-02T18:45:20.097Z,2.56
2023-05-02T18:47:20.935Z,2.56
2023-05-02T18:49:21.052Z,2.56
2023-05-02T18:51:20.391Z,2.56
2023-05-02T18:53:20.153Z,2.59
2023-05-02T18:55:22.117Z,2.59
2023-05-02T18:57:20.312Z,2.59
2023-05-02T18:59:20.853Z,2.6
2023-05-02T19:01:24.990Z,2.6
2023-05-02T19:03:21.412Z,2.6
2023-05-02T19:05:21.123Z,2.6
2023-05-02T19:07:20.733Z,2.6
2023-05-02T19:09:20.881Z,2.6
2023-05-02T19:11:20.600Z,2.6
2023-05-02T19:13:20.912Z,2.6
2023-05-02T19:15:20.278Z,2.6
2023-05-02T19:17:21.038Z,2.59
2023-05-02T19:19:20.168Z,2.59
2023-05-02T19:21:20.602Z,2.59
2023-05-02T19:23:41.258Z,2.58
2023-05-02T19:25:20.612Z,2.58
2023-05-02T19:27:20.202Z,2.58
2023-05-02T19:29:20.423Z,2.58
2023-05-02T19:31:20.463Z,2.58
2023-05-02T19:33:21.576Z,2.58
2023-05-02T19:35:20.134Z,2.59
2023-05-02T19:37:20.656Z,2.59
2023-05-02T19:39:20.331Z,2.59
2023-05-02T19:41:21.028Z,2.59
2023-05-02T19:43:20.423Z,2.59
2023-05-02T19:45:19.906Z,2.59
2023-05-02T19:47:20.742Z,2.59
2023-05-02T19:49:22.385Z,2.59
2023-05-02T19:51:20.487Z,2.59
2023-05-02T19:53:20.092Z,2.59
2023-05-02T19:55:20.434Z,2.59
2023-05-02T19:57:19.983Z,2.59
2023-05-02T19:59:20.531Z,2.59
2023-05-02T20:01:24.167Z,2.59
2023-05-02T20:03:25.355Z,2.59
2023-05-02T20:05:20.224Z,2.59
2023-05-02T20:07:20.793Z,2.59
2023-05-02T20:09:20.689Z,2.59
2023-05-02T20:11:20.549Z,2.59
2023-05-02T20:13:20.416Z,2.59
2023-05-02T20:15:20.780Z,2.59
2023-05-02T20:17:24.162Z,2.6
2023-05-02T20:19:22.174Z,2.6
2023-05-02T20:21:20.811Z,2.6
2023-05-02T20:23:20.783Z,2.6
2023-05-02T20:25:20.414Z,2.6
2023-05-02T20:27:20.053Z,2.6
2023-05-02T20:29:20.397Z,2.6
2023-05-02T20:31:21.262Z,2.6
2023-05-02T20:33:52.811Z,2.59
2023-05-02T20:35:20.699Z,2.59
2023-05-02T20:37:20.166Z,2.59
2023-05-02T20:39:22.153Z,2.59
2023-05-02T20:41:20.437Z,2.58
2023-05-02T20:43:20.519Z,2.58
2023-05-02T20:45:20.195Z,2.58
2023-05-02T20:47:21.041Z,2.56
2023-05-02T20:49:20.539Z,2.56
2023-05-02T20:51:21.412Z,2.56
2023-05-02T20:53:22.364Z,2.56
2023-05-02T20:55:20.029Z,2.56
2023-05-02T20:57:20.442Z,2.56
2023-05-02T20:59:20.870Z,2.58
2023-05-02T21:01:24.132Z,2.58
2023-05-02T21:03:20.943Z,2.58
2023-05-02T21:05:20.943Z,2.56
2023-05-02T21:07:20.924Z,2.56
2023-05-02T21:09:20.828Z,2.56
2023-05-02T21:11:24.256Z,2.56
2023-05-02T21:13:20.819Z,2.56
2023-05-02T21:15:20.628Z,2.56
2023-05-02T21:17:20.382Z,2.56
2023-05-02T21:19:20.698Z,2.56
2023-05-02T21:21:21.583Z,2.56
2023-05-02T21:23:20.401Z,2.56
2023-05-02T21:25:20.913Z,2.56
2023-05-02T21:27:20.347Z,2.56
2023-05-02T21:29:20.567Z,2.56
2023-05-02T21:31:20.857Z,2.56
2023-05-02T21:33:21.225Z,2.56
2023-05-02T21:35:20.408Z,2.58
2023-05-02T21:37:20.796Z,2.58
2023-05-02T21:39:20.324Z,2.58
2023-05-02T21:41:21.113Z,2.58
2023-05-02T21:43:20.224Z,2.58
2023-05-02T21:45:20.746Z,2.58
2023-05-02T21:47:20.649Z,2.58
2023-05-02T21:49:20.649Z,2.58
2023-05-02T21:51:20.847Z,2.58
2023-05-02T21:53:21.053Z,2.58
2023-05-02T21:55:20.409Z,2.58
2023-05-02T21:57:20.817Z,2.58
2023-05-02T21:59:20.361Z,2.58
2023-05-02T22:01:21.958Z,2.58
2023-05-02T22:03:22.245Z,2.58
2023-05-02T22:05:20.577Z,2.58
2023-05-02T22:07:21.497Z,2.58
2023-05-02T22:09:20.300Z,2.58
2023-05-02T22:11:21.475Z,2.58
2023-05-02T22:13:20.827Z,2.58
2023-05-02T22:15:37.561Z,2.58
2023-05-02T22:17:20.745Z,2.58
2023-05-02T22:19:20.422Z,2.58
2023-05-02T22:21:21.008Z,2.58
2023-05-02T22:23:20.148Z,2.58
2023-05-02T22:25:20.529Z,2.58
2023-05-02T22:27:20.100Z,2.58
2023-05-02T22:29:20.583Z,2.59
2023-05-02T22:31:21.686Z,2.59
2023-05-02T22:33:21.461Z,2.59
2023-05-02T22:35:20.765Z,2.59
2023-05-02T22:37:20.166Z,2.59
2023-05-02T22:39:20.720Z,2.59
2023-05-02T22:41:20.898Z,2.59
2023-05-02T22:43:21.169Z,2.59
2023-05-02T22:45:38.403Z,2.59
2023-05-02T22:47:20.846Z,2.59
2023-05-02T22:49:20.479Z,2.59
2023-05-02T22:51:21.627Z,2.59
2023-05-02T22:53:20.522Z,2.59
2023-05-02T22:55:19.989Z,2.59
2023-05-02T22:57:20.556Z,2.59
2023-05-02T22:59:20.230Z,2.6
2023-05-02T23:01:25.221Z,2.6
2023-05-02T23:03:21.407Z,2.6
2023-05-02T23:05:20.168Z,2.6
2023-05-02T23:07:21.402Z,2.6
2023-05-02T23:09:20.270Z,2.6
2023-05-02T23:11:21.182Z,2.6
2023-05-02T23:13:20.242Z,2.6
2023-05-02T23:15:20.675Z,2.6
2023-05-02T23:17:20.644Z,2.6
2023-05-02T23:19:21.093Z,2.6
2023-05-02T23:21:20.741Z,2.6
2023-05-02T23:23:20.650Z,2.6
2023-05-02T23:25:20.098Z,2.6
2023-05-02T23:27:20.582Z,2.6
2023-05-02T23:29:19.972Z,2.62
2023-05-02T23:31:21.068Z,2.62
2023-05-02T23:33:21.386Z,2.62
2023-05-02T23:35:20.226Z,2.62
2023-05-02T23:37:20.922Z,2.62
2023-05-02T23:39:20.349Z,2.62
2023-05-02T23:41:21.125Z,2.62
2023-05-02T23:43:20.227Z,2.62
2023-05-02T23:45:20.731Z,2.62
2023-05-02T23:47:20.853Z,2.63
2023-05-02T23:49:20.756Z,2.63
2023-05-02T23:51:20.740Z,2.63
2023-05-02T23:53:20.706Z,2.63
2023-05-02T23:55:20.152Z,2.63
2023-05-02T23:57:20.609Z,2.63
2023-05-02T23:59:20.945Z,2.63
